Aérodrome :
LOGIN :

S'inscrire | Disclaimer

   EN    FR    IT 

 










Légende :    VFR   VFR Marginal   IFR   IFR Intensif   IFR Très Intensif
Visi : 
Plafond : 
>= 8 km
>= 3000ft
5 à 8 km
1000 à 3000 ft
1500m à 5 km
500 à 1000 ft
800 à 1500m
200 à 500 ft
< 800m
< 200 ft
Symboles :   Orages  Brouillard  Fortes neiges  Fortes précipitations  Vent > 20 kt
SIGMETs :   Divers  Orages  Givrage  Turbulence  Onde Orograph.  Cendres Volcan.






- Altitude de l'aérodrome : 0 ft


ETEB - Ansbach Army Heliport

DERNIER METAR :
  • 291656Z AUTO 08005KT 9999 FEW060 18/03 A3022 RMK AO2 SLP243 T01760031 $

METARs EXPIRÉS :
  • 291556Z AUTO 08010KT 9999 SCT085 18/04 A3024 RMK AO2 SLP252 T01750037 $
  • 291456Z AUTO 07008KT 9999 SCT090 SCT190 17/04 A3025 RMK AO2 SLP258 T01740037 57013 $
  • 291439Z AUTO 09010KT 9999 SCT085 SCT200 18/04 A3025 RMK AO2 WSHFT 36 SLP258 $

TAF TAF ETEB
Valide du 29 à 09h jusqu'au 30 à 15h UTC


290900Z 2909/3015 05009KT 9999 SCT050 QNH3024INS
BECMG 2911/2912 04012G18KT 9999 BKN065 QNH3018INS TX17/2913Z TN07/3002Z LAST NO AMDS AFT 2916 NEXT 0209



MET'MAP, la Météo Aéronautique d'un coup d'oeil ! - Copyright ORBIFLY Décembre 2007 - Disclaimer

ORBIFLY MET'MAP TEAM :

Programmation & Développement : Alexandra Zaïnal
Sur une idée originale de : Baudouin d'Aumeries
Assistance à la programmation : Marc-Olivier Méhu
Soutien technique & logistique : Manuel Goepfert

Contact : metmap@orbifly.com




SOURCES & CREDITS :

   NOAA